KSNS/SNS METAR and TAF weather

Enter ICAO airport designator
Station Type Date Time Source
KSNS METAR 2019/12/09 21:53 UTC NOAA

KSNS 092153Z 14004KT 8SM OVC006 12/10 A3015 RMK AO2 SLP219 T01170100


Station Type Date Time Source
KSNS Decoded METAR 2019/12/09 21:53 UTC NOAA

SALINAS MUNICIPAL AIRPORT, CA, United States (KSNS) 36-40N 121-36W 30M
Dec 09, 2019 - 04:53 PM EST / 2019.12.09 2153 UTC
Wind: from the SE (140 degrees) at 5 MPH (4 KT):0
Visibility: 8 mile(s):0
Sky conditions: overcast
Temperature: 53.1 F (11.7 C)
Dew Point: 50.0 F (10.0 C)
Relative Humidity: 89%
Pressure (altimeter): 30.15 in. Hg (1020 hPa)
ob: KSNS 092153Z 14004KT 8SM OVC006 12/10 A3015 RMK AO2 SLP219 T01170100
cycle: 22

Station Type Date Time Source
KSNS TAF 2019/12/09 21:58 UTC NOAA

TAF
AMD KSNS 092058Z 0921/1018 00000KT P6SM OVC005
FM092200 28005KT P6SM OVC010
TEMPO 0922/1001 FEW010
FM100300 VRB04KT P6SM OVC015
FM100900 11005KT P6SM BKN007

Example: see airport list